Murden — AELE — position and weather

sailwx.info

Track history (hours):
 
Tides and Currents Weather Stations Pressure Air Temp Water Temp Dewpoint Dewpoint Depression Visibility Wind Speed Wind Dir Waves Ship Positions

Murden

Last reported at 2017-Nov-17 13:01 UTC. Time now 2017-Dec-18 05:17 UTC.
Position N 42°58' W 070°42'.
Warning: this ship's position is 30 days out of date.

Length 50 m; draft 1.8 m.

Type: Other ship. MMSI: 369970571.

Date/timePositionNaut miles runAvg speedWind from/ knotsBaromVisibWave heightAir tempDewpointWater temp
2017-Nov-17 13:01N 42°58' W 070°42'4 8.1
2017-Nov-17 12:34N 42°54' W 070°42'1 8.1
2017-Nov-17 12:29N 42°54' W 070°42'4 8.2
2017-Nov-17 12:01N 42°50' W 070°44'3 0.2
2017-Nov-16 20:11N 42°49' W 070°49'1 4.8
2017-Nov-16 20:01N 42°49' W 070°48'4 7.6
2017-Nov-16 19:30N 42°48' W 070°43'4 8.2
2017-Nov-16 19:01N 42°46' W 070°38'4 8.1
2017-Nov-16 18:31N 42°44' W 070°33'4 8.7
2017-Nov-16 18:01N 42°40' W 070°31'5 9.6
2017-Nov-16 17:31N 42°35' W 070°31'5 9.4
2017-Nov-16 17:00N 42°30' W 070°30'5 9.6
2017-Nov-16 16:30N 42°25' W 070°29'5 9.4
2017-Nov-16 16:01N 42°21' W 070°28'5 9.4
2017-Nov-16 15:31N 42°16' W 070°28'  
2017-Nov-13 23:56N 41°17' W 072°06'5 8.2
2017-Nov-13 23:21N 41°14' W 072°12'3 7.6
2017-Nov-13 23:00N 41°14' W 072°15'4 7.3
2017-Nov-13 22:29N 41°13' W 072°20'3 7.1
2017-Nov-13 22:00N 41°12' W 072°25'81 4.1
2017-Nov-13 02:01N 40°41' W 074°04'0 0.0
2017-Nov-13 01:31N 40°41' W 074°04'0 0.0
2017-Nov-13 01:01N 40°41' W 074°04'0 0.0
2017-Nov-13 00:30N 40°41' W 074°04'0 0.0
2017-Nov-13 00:01N 40°41' W 074°04'0 0.0
2017-Nov-12 23:31N 40°41' W 074°04'0 0.0
2017-Nov-12 23:01N 40°41' W 074°04'0 0.0
2017-Nov-12 22:30N 40°41' W 074°04'1 1.2
2017-Nov-12 22:01N 40°41' W 074°04'5 9.0
2017-Nov-12 21:31N 40°36' W 074°03'5 9.2
2017-Nov-12 21:00N 40°32' W 074°02'6 9.5
2017-Nov-12 20:25N 40°28' W 073°57'5 9.1
2017-Nov-12 19:54N 40°23' W 073°57'31 9.0
2017-Nov-12 16:26N 39°52' W 074°03'4 9.0
2017-Nov-12 16:00N 39°48' W 074°04'4 8.8
2017-Nov-12 15:30N 39°44' W 074°05'4 8.8
2017-Nov-12 15:00N 39°40' W 074°08'4 8.9
2017-Nov-12 14:31N 39°36' W 074°10'  
2017-Nov-10 10:10N 37°56' W 075°23'0 0.0
2017-Nov-10 09:54N 37°56' W 075°23'0 0.0
2017-Nov-10 09:25N 37°56' W 075°23'0 0.0
2017-Nov-10 08:41N 37°56' W 075°23'0 0.0
2017-Nov-10 08:27N 37°56' W 075°23'61 3.2
2017-Nov-09 13:27N 37°00' W 075°55'3 7.0
2017-Nov-09 12:59N 36°60' W 075°59'4 7.8
2017-Nov-09 12:28N 36°59' W 076°04'7 0.8
2017-Nov-09 03:46N 36°55' W 076°11'0 0.0
2017-Nov-09 03:30N 36°55' W 076°11'0 0.0
2017-Nov-09 02:57N 36°55' W 076°11'0 0.0
2017-Nov-09 02:28N 36°55' W 076°11'0 0.0
2017-Nov-09 01:54N 36°55' W 076°11'0 0.0
2017-Nov-09 01:30N 36°55' W 076°11'0 0.0
2017-Nov-09 01:01N 36°55' W 076°11'0 0.0
2017-Nov-09 00:31N 36°55' W 076°11'0 0.0
2017-Nov-08 23:58N 36°55' W 076°11'0 0.0
2017-Nov-08 23:25N 36°55' W 076°11'0 0.0
2017-Nov-08 23:00N 36°55' W 076°11'0 0.0
2017-Nov-08 22:30N 36°55' W 076°11'0 0.0
2017-Nov-08 22:00N 36°55' W 076°11'0 0.0
2017-Nov-08 21:30N 36°55' W 076°11'0 0.0
2017-Nov-08 20:59N 36°55' W 076°11'0 0.0
2017-Nov-08 20:30N 36°55' W 076°11'0 0.0
2017-Nov-08 20:01N 36°55' W 076°11'0 0.0
2017-Nov-08 19:24N 36°55' W 076°11'0 0.0
2017-Nov-08 19:01N 36°55' W 076°11'0 0.0
2017-Nov-08 18:31N 36°55' W 076°11'0 0.0
2017-Nov-08 18:01N 36°55' W 076°11'0 0.0
2017-Nov-08 17:28N 36°55' W 076°11'0 0.0
2017-Nov-08 16:49N 36°55' W 076°11'0 0.0
2017-Nov-08 16:30N 36°55' W 076°11'0 0.0
2017-Nov-08 16:01N 36°55' W 076°11'0 0.0
2017-Nov-08 15:30N 36°55' W 076°11'0 0.0
2017-Nov-08 15:00N 36°55' W 076°11'0 0.0
2017-Nov-08 14:31N 36°55' W 076°11'0 0.0
2017-Nov-08 13:59N 36°55' W 076°11'0 0.0
2017-Nov-08 13:31N 36°55' W 076°11'0 0.0
2017-Nov-08 12:57N 36°55' W 076°11'0 0.0
2017-Nov-08 12:30N 36°55' W 076°11'0 0.0
2017-Nov-08 11:55N 36°55' W 076°11'0 0.0
2017-Nov-08 05:56N 36°55' W 076°11'0 0.0
2017-Nov-08 05:30N 36°55' W 076°11'0 0.0
2017-Nov-08 05:00N 36°55' W 076°11'0 0.0
2017-Nov-08 04:31N 36°55' W 076°11'0 0.0
2017-Nov-08 04:00N 36°55' W 076°11'0 0.0
2017-Nov-08 03:30N 36°55' W 076°11'0 0.0
2017-Nov-08 03:00N 36°55' W 076°11'0 0.0
2017-Nov-08 02:31N 36°55' W 076°11'0 0.0
2017-Nov-08 02:00N 36°55' W 076°11'0 0.0
2017-Nov-08 01:30N 36°55' W 076°11'0 0.0
2017-Nov-08 01:00N 36°55' W 076°11'0 0.0
2017-Nov-08 00:30N 36°55' W 076°11'0 0.0
2017-Nov-08 00:00N 36°55' W 076°11'0 0.0
2017-Nov-07 23:30N 36°55' W 076°11'0 0.0
2017-Nov-07 23:00N 36°55' W 076°11'0 0.0
2017-Nov-07 22:30N 36°55' W 076°11'4 5.0
2017-Nov-07 21:46N 36°59' W 076°10'3 7.4
2017-Nov-07 21:21N 37°02' W 076°09'3 7.4
2017-Nov-07 20:58N 37°05' W 076°09'  
Track history (hours):
 
Tides and Currents Weather Stations Pressure Air Temp Water Temp Dewpoint Dewpoint Depression Visibility Wind Speed Wind Dir Waves Ship Positions

Murden

Last reported at 2017-Nov-17 13:01 UTC. Time now 2017-Dec-18 05:17 UTC.
Position N 42°58' W 070°42'.
Warning: this ship's position is 30 days out of date.

Length 50 m; draft 1.8 m.

Type: Other ship. MMSI: 369970571.

Date/timePositionNaut miles runAvg speedWind from/ knotsBaromVisibWave heightAir tempDewpointWater temp
2017-Nov-17 13:01N 42°58' W 070°42'4 8.1
2017-Nov-17 12:34N 42°54' W 070°42'1 8.1
2017-Nov-17 12:29N 42°54' W 070°42'4 8.2
2017-Nov-17 12:01N 42°50' W 070°44'3 0.2
2017-Nov-16 20:11N 42°49' W 070°49'1 4.8
2017-Nov-16 20:01N 42°49' W 070°48'4 7.6
2017-Nov-16 19:30N 42°48' W 070°43'4 8.2
2017-Nov-16 19:01N 42°46' W 070°38'4 8.1
2017-Nov-16 18:31N 42°44' W 070°33'4 8.7
2017-Nov-16 18:01N 42°40' W 070°31'5 9.6
2017-Nov-16 17:31N 42°35' W 070°31'5 9.4
2017-Nov-16 17:00N 42°30' W 070°30'5 9.6
2017-Nov-16 16:30N 42°25' W 070°29'5 9.4
2017-Nov-16 16:01N 42°21' W 070°28'5 9.4
2017-Nov-16 15:31N 42°16' W 070°28'  
2017-Nov-13 23:56N 41°17' W 072°06'5 8.2
2017-Nov-13 23:21N 41°14' W 072°12'3 7.6
2017-Nov-13 23:00N 41°14' W 072°15'4 7.3
2017-Nov-13 22:29N 41°13' W 072°20'3 7.1
2017-Nov-13 22:00N 41°12' W 072°25'81 4.1
2017-Nov-13 02:01N 40°41' W 074°04'0 0.0
2017-Nov-13 01:31N 40°41' W 074°04'0 0.0
2017-Nov-13 01:01N 40°41' W 074°04'0 0.0
2017-Nov-13 00:30N 40°41' W 074°04'0 0.0
2017-Nov-13 00:01N 40°41' W 074°04'0 0.0
2017-Nov-12 23:31N 40°41' W 074°04'0 0.0
2017-Nov-12 23:01N 40°41' W 074°04'0 0.0
2017-Nov-12 22:30N 40°41' W 074°04'1 1.2
2017-Nov-12 22:01N 40°41' W 074°04'5 9.0
2017-Nov-12 21:31N 40°36' W 074°03'5 9.2
2017-Nov-12 21:00N 40°32' W 074°02'6 9.5
2017-Nov-12 20:25N 40°28' W 073°57'5 9.1
2017-Nov-12 19:54N 40°23' W 073°57'31 9.0
2017-Nov-12 16:26N 39°52' W 074°03'4 9.0
2017-Nov-12 16:00N 39°48' W 074°04'4 8.8
2017-Nov-12 15:30N 39°44' W 074°05'4 8.8
2017-Nov-12 15:00N 39°40' W 074°08'4 8.9
2017-Nov-12 14:31N 39°36' W 074°10'  
2017-Nov-10 10:10N 37°56' W 075°23'0 0.0
2017-Nov-10 09:54N 37°56' W 075°23'0 0.0
2017-Nov-10 09:25N 37°56' W 075°23'0 0.0
2017-Nov-10 08:41N 37°56' W 075°23'0 0.0
2017-Nov-10 08:27N 37°56' W 075°23'61 3.2
2017-Nov-09 13:27N 37°00' W 075°55'3 7.0
2017-Nov-09 12:59N 36°60' W 075°59'4 7.8
2017-Nov-09 12:28N 36°59' W 076°04'7 0.8
2017-Nov-09 03:46N 36°55' W 076°11'0 0.0
2017-Nov-09 03:30N 36°55' W 076°11'0 0.0
2017-Nov-09 02:57N 36°55' W 076°11'0 0.0
2017-Nov-09 02:28N 36°55' W 076°11'0 0.0
2017-Nov-09 01:54N 36°55' W 076°11'0 0.0
2017-Nov-09 01:30N 36°55' W 076°11'0 0.0
2017-Nov-09 01:01N 36°55' W 076°11'0 0.0
2017-Nov-09 00:31N 36°55' W 076°11'0 0.0
2017-Nov-08 23:58N 36°55' W 076°11'0 0.0
2017-Nov-08 23:25N 36°55' W 076°11'0 0.0
2017-Nov-08 23:00N 36°55' W 076°11'0 0.0
2017-Nov-08 22:30N 36°55' W 076°11'0 0.0
2017-Nov-08 22:00N 36°55' W 076°11'0 0.0
2017-Nov-08 21:30N 36°55' W 076°11'0 0.0
2017-Nov-08 20:59N 36°55' W 076°11'0 0.0
2017-Nov-08 20:30N 36°55' W 076°11'0 0.0
2017-Nov-08 20:01N 36°55' W 076°11'0 0.0
2017-Nov-08 19:24N 36°55' W 076°11'0 0.0
2017-Nov-08 19:01N 36°55' W 076°11'0 0.0
2017-Nov-08 18:31N 36°55' W 076°11'0 0.0
2017-Nov-08 18:01N 36°55' W 076°11'0 0.0
2017-Nov-08 17:28N 36°55' W 076°11'0 0.0
2017-Nov-08 16:49N 36°55' W 076°11'0 0.0
2017-Nov-08 16:30N 36°55' W 076°11'0 0.0
2017-Nov-08 16:01N 36°55' W 076°11'0 0.0
2017-Nov-08 15:30N 36°55' W 076°11'0 0.0
2017-Nov-08 15:00N 36°55' W 076°11'0 0.0
2017-Nov-08 14:31N 36°55' W 076°11'0 0.0
2017-Nov-08 13:59N 36°55' W 076°11'0 0.0
2017-Nov-08 13:31N 36°55' W 076°11'0 0.0
2017-Nov-08 12:57N 36°55' W 076°11'0 0.0
2017-Nov-08 12:30N 36°55' W 076°11'0 0.0
2017-Nov-08 11:55N 36°55' W 076°11'0 0.0
2017-Nov-08 05:56N 36°55' W 076°11'0 0.0
2017-Nov-08 05:30N 36°55' W 076°11'0 0.0
2017-Nov-08 05:00N 36°55' W 076°11'0 0.0
2017-Nov-08 04:31N 36°55' W 076°11'0 0.0
2017-Nov-08 04:00N 36°55' W 076°11'0 0.0
2017-Nov-08 03:30N 36°55' W 076°11'0 0.0
2017-Nov-08 03:00N 36°55' W 076°11'0 0.0
2017-Nov-08 02:31N 36°55' W 076°11'0 0.0
2017-Nov-08 02:00N 36°55' W 076°11'0 0.0
2017-Nov-08 01:30N 36°55' W 076°11'0 0.0
2017-Nov-08 01:00N 36°55' W 076°11'0 0.0
2017-Nov-08 00:30N 36°55' W 076°11'0 0.0
2017-Nov-08 00:00N 36°55' W 076°11'0 0.0
2017-Nov-07 23:30N 36°55' W 076°11'0 0.0
2017-Nov-07 23:00N 36°55' W 076°11'0 0.0
2017-Nov-07 22:30N 36°55' W 076°11'4 5.0
2017-Nov-07 21:46N 36°59' W 076°10'3 7.4
2017-Nov-07 21:21N 37°02' W 076°09'3 7.4
2017-Nov-07 20:58N 37°05' W 076°09'  

Dump ship's entire track history